Time;durP1;ratioP1;P1;durP2;ratioP2;P2;SDS_P1;SDS_P2;PMS_P1;PMS_P2;Temp;Humidity;BMP_temperature;BMP_pressure;BME280_temperature;BME280_humidity;BME280_pressure;Samples;Min_cycle;Max_cycle;Signal;HPM_P1;HPM_P2
2022/02/03 00:00:32;;;;;;;16.93;13.87;;;7.90;99.90;;;;;;5095507;28;20505;-87
2022/02/03 00:03:11;;;;;;;18.63;13.80;;;7.80;99.90;;;;;;5095328;28;20472;-87
2022/02/03 00:05:48;;;;;;;17.60;14.70;;;7.80;99.90;;;;;;5094721;28;20519;-86
2022/02/03 00:08:27;;;;;;;18.40;15.20;;;7.80;99.90;;;;;;5094230;28;20495;-87
2022/02/03 00:16:43;;;;;;;15.90;14.23;;;7.80;99.90;;;;;;5116010;28;20472;-84
2022/02/03 00:22:29;;;;;;;16.90;14.80;;;7.70;99.90;;;;;;5100544;28;20434;-85
2022/02/03 00:25:05;;;;;;;17.50;13.97;;;7.80;99.90;;;;;;5102360;28;20438;-87
2022/02/03 00:27:45;;;;;;;16.30;14.47;;;7.80;99.90;;;;;;5115137;28;20462;-87
2022/02/03 00:30:14;;;;;;;13.53;12.23;;;7.90;99.90;;;;;;5099038;28;20497;-88
2022/02/03 00:33:05;;;;;;;16.27;12.20;;;7.80;99.90;;;;;;5094477;28;20509;-87
2022/02/03 00:38:44;;;;;;;15.77;14.27;;;7.90;99.90;;;;;;5101261;28;20442;-87
2022/02/03 00:49:39;;;;;;;16.20;12.90;;;7.90;99.90;;;;;;5102887;28;20442;-87
2022/02/03 00:52:06;;;;;;;15.53;13.37;;;7.90;99.90;;;;;;5099957;28;20829;-86
2022/02/03 00:54:33;;;;;;;18.53;15.30;;;7.90;99.90;;;;;;5112253;28;20446;-85
2022/02/03 00:57:03;;;;;;;15.40;13.80;;;7.70;99.90;;;;;;5109176;28;21002;-87
2022/02/03 00:59:36;;;;;;;16.90;14.80;;;7.80;99.90;;;;;;5101608;28;20474;-87
2022/02/03 01:02:06;;;;;;;17.60;14.90;;;7.80;99.90;;;;;;5099377;28;20449;-86
2022/02/03 01:04:38;;;;;;;17.50;15.87;;;7.70;99.90;;;;;;5099117;28;20931;-87
2022/02/03 01:07:09;;;;;;;23.67;17.57;;;7.70;99.90;;;;;;5099049;28;20530;-87
2022/02/03 01:09:41;;;;;;;19.57;16.57;;;7.70;99.90;;;;;;5098058;28;20449;-86
2022/02/03 01:12:17;;;;;;;21.10;16.43;;;7.70;99.90;;;;;;5097151;28;20826;-87
2022/02/03 01:14:51;;;;;;;21.37;15.70;;;7.70;99.90;;;;;;5098191;28;20872;-86
2022/02/03 01:17:30;;;;;;;19.57;16.90;;;7.70;99.90;;;;;;5108344;28;20470;-86
2022/02/03 01:34:09;;;;;;;19.80;17.77;;;7.70;99.90;;;;;;5096980;28;20438;-86
2022/02/03 01:37:09;;;;;;;21.37;17.67;;;7.70;99.90;;;;;;5096535;28;20466;-86
2022/02/03 01:45:19;;;;;;;21.70;19.20;;;7.70;99.90;;;;;;5095700;28;20452;-86
2022/02/03 01:48:18;;;;;;;18.77;16.83;;;7.70;99.90;;;;;;5095461;28;20870;-86
2022/02/03 01:53:33;;;;;;;22.07;18.90;;;7.80;99.90;;;;;;5095252;28;20489;-86
2022/02/03 01:56:04;;;;;;;18.80;16.90;;;7.80;99.90;;;;;;5095355;28;20454;-86
2022/02/03 01:58:38;;;;;;;19.90;17.13;;;7.80;99.90;;;;;;5094933;28;20457;-86
2022/02/03 02:01:05;;;;;;;18.27;16.23;;;7.80;99.90;;;;;;5087962;28;20472;-86
2022/02/03 02:03:40;;;;;;;21.27;17.33;;;7.80;99.90;;;;;;5094638;28;20439;-87
2022/02/03 02:06:22;;;;;;;19.77;17.20;;;7.80;99.90;;;;;;5100615;28;20453;-84
2022/02/03 02:09:00;;;;;;;21.03;18.77;;;7.80;99.90;;;;;;5118071;28;20434;-84
2022/02/03 02:11:44;;;;;;;23.27;20.07;;;7.80;99.90;;;;;;5113033;28;20439;-86
2022/02/03 02:14:46;;;;;;;19.90;17.80;;;7.70;99.90;;;;;;5095954;28;21010;-86
2022/02/03 02:36:51;;;;;;;22.17;18.73;;;7.70;99.90;;;;;;5095755;28;20446;-86
2022/02/03 02:37:11;;;;;;;22.23;19.27;;;7.70;99.90;;;;;;5105132;28;20465;-85
2022/02/03 02:40:04;;;;;;;25.43;20.37;;;7.70;99.90;;;;;;5113364;28;20478;-86
2022/02/03 02:42:40;;;;;;;21.23;18.93;;;7.80;99.90;;;;;;5096455;28;20950;-86
2022/02/03 02:45:10;;;;;;;23.57;18.77;;;7.80;99.90;;;;;;5101922;28;20414;-86
2022/02/03 02:47:58;;;;;;;21.60;17.60;;;7.80;99.90;;;;;;5117966;28;20478;-86
2022/02/03 02:50:34;;;;;;;19.83;17.73;;;7.80;99.90;;;;;;5105279;28;20501;-86
2022/02/03 02:53:14;;;;;;;20.53;18.30;;;7.80;99.90;;;;;;5079157;28;20501;-86
2022/02/03 02:55:58;;;;;;;19.20;17.20;;;7.80;99.90;;;;;;5094867;28;20446;-87
2022/02/03 02:58:50;;;;;;;20.90;16.13;;;7.80;99.90;;;;;;5119559;28;20473;-84
2022/02/03 03:02:04;;;;;;;21.40;16.53;;;7.80;99.90;;;;;;5110027;28;20449;-86
2022/02/03 03:30:01;;;;;;;21.33;17.80;;;7.80;99.90;;;;;;5098499;28;20946;-87
2022/02/03 03:32:45;;;;;;;22.53;17.43;;;7.90;99.90;;;;;;5090542;28;20562;-87
2022/02/03 03:35:33;;;;;;;19.60;15.33;;;7.90;99.90;;;;;;5096574;28;20454;-86
2022/02/03 03:38:02;;;;;;;20.30;16.37;;;8.00;99.90;;;;;;5100871;28;20526;-86
2022/02/03 03:40:32;;;;;;;17.10;15.40;;;8.00;99.90;;;;;;5106204;28;20541;-86
2022/02/03 03:43:04;;;;;;;17.63;14.90;;;8.00;99.90;;;;;;5110019;28;20464;-87
2022/02/03 03:45:33;;;;;;;16.10;14.50;;;8.00;99.90;;;;;;5112376;28;20456;-87
2022/02/03 03:48:05;;;;;;;16.03;14.33;;;8.00;99.90;;;;;;5096169;28;20469;-87
2022/02/03 03:50:35;;;;;;;15.57;13.93;;;8.00;99.90;;;;;;5079903;28;20442;-87
2022/02/03 03:53:11;;;;;;;14.80;13.30;;;8.00;99.90;;;;;;5093060;28;20513;-86
2022/02/03 03:55:46;;;;;;;15.77;13.40;;;8.00;99.90;;;;;;5093826;28;20819;-87
2022/02/03 03:58:37;;;;;;;14.60;11.80;;;8.00;99.90;;;;;;5080692;22;20706;-92
2022/02/03 04:33:58;;;;;;;15.73;13.83;;;7.90;99.90;;;;;;5036599;28;20477;-92
2022/02/03 04:57:40;;;;;;;13.90;11.87;;;8.10;99.90;;;;;;5031827;28;20532;-92
2022/02/03 05:03:36;;;;;;;12.93;9.67;;;8.10;99.90;;;;;;5017267;28;20436;-90
2022/02/03 05:06:17;;;;;;;11.37;10.27;;;8.20;99.90;;;;;;5023871;28;20452;-92
2022/02/03 05:09:03;;;;;;;11.20;10.20;;;8.20;99.90;;;;;;5038502;28;20976;-91
2022/02/03 05:12:08;;;;;;;11.80;10.60;;;8.20;99.90;;;;;;5043127;28;20878;-89
2022/02/03 05:15:18;;;;;;;10.83;9.53;;;8.20;99.90;;;;;;5048797;28;20955;-91
2022/02/03 05:18:24;;;;;;;11.47;10.30;;;8.20;99.90;;;;;;5050589;28;20539;-90
2022/02/03 05:21:31;;;;;;;11.33;10.17;;;8.10;99.90;;;;;;5047714;28;20495;-92
2022/02/03 05:32:03;;;;;;;11.40;8.93;;;8.10;99.90;;;;;;5029262;28;20447;-92
2022/02/03 05:46:17;;;;;;;10.80;9.77;;;7.90;99.90;;;;;;5057595;28;20501;-93
2022/02/03 05:49:00;;;;;;;11.67;10.40;;;7.80;99.90;;;;;;5056765;28;20508;-94
2022/02/03 05:51:48;;;;;;;11.80;10.27;;;7.70;99.90;;;;;;5055602;28;20445;-94
2022/02/03 05:54:47;;;;;;;12.60;10.50;;;7.70;99.90;;;;;;5041133;28;20497;-92
2022/02/03 06:03:32;;;;;;;12.67;11.33;;;7.60;99.90;;;;;;5041022;28;20440;-92
2022/02/03 06:06:13;;;;;;;13.13;10.30;;;7.60;99.90;;;;;;5041576;28;20453;-92
2022/02/03 06:08:56;;;;;;;12.47;10.30;;;7.60;99.90;;;;;;5047337;28;20493;-92
2022/02/03 06:14:29;;;;;;;15.77;11.13;;;7.50;99.90;;;;;;5057881;28;20499;-93
2022/02/03 06:17:17;;;;;;;12.73;11.23;;;7.50;99.90;;;;;;5055905;28;20952;-92
2022/02/03 06:22:43;;;;;;;11.97;10.40;;;7.60;99.90;;;;;;5045473;28;20475;-91
2022/02/03 06:28:30;;;;;;;16.17;11.93;;;7.70;99.90;;;;;;5043783;28;20544;-91
2022/02/03 06:30:57;;;;;;;11.30;10.10;;;7.80;99.90;;;;;;5033348;28;20464;-91
2022/02/03 06:33:44;;;;;;;14.30;10.80;;;7.80;99.90;;;;;;5032721;28;20478;-91
2022/02/03 06:36:19;;;;;;;11.10;10.00;;;7.80;99.90;;;;;;5031426;28;20446;-91
2022/02/03 06:39:04;;;;;;;12.07;10.87;;;7.90;99.90;;;;;;5033529;28;20474;-92
2022/02/03 06:44:14;;;;;;;11.93;10.73;;;7.80;99.90;;;;;;5030985;28;20476;-92
2022/02/03 06:46:48;;;;;;;14.07;11.40;;;7.90;99.90;;;;;;5029314;28;20440;-91
2022/02/03 06:49:18;;;;;;;15.10;11.30;;;7.90;99.90;;;;;;5030307;28;20445;-91
2022/02/03 06:51:53;;;;;;;13.80;11.30;;;7.90;99.90;;;;;;5028501;28;21163;-90
2022/02/03 06:54:28;;;;;;;12.50;10.77;;;8.00;99.90;;;;;;5024990;28;20473;-88
2022/02/03 06:56:59;;;;;;;11.50;10.03;;;8.10;99.90;;;;;;5024212;28;20452;-88
2022/02/03 06:59:35;;;;;;;13.83;9.83;;;8.00;99.90;;;;;;5028325;28;20450;-89
2022/02/03 07:02:02;;;;;;;11.47;10.30;;;8.10;99.90;;;;;;5026338;28;20898;-87
2022/02/03 07:04:39;;;;;;;11.97;9.90;;;8.20;99.90;;;;;;5025197;28;20509;-90
2022/02/03 07:07:05;;;;;;;12.80;11.07;;;8.30;99.90;;;;;;5026675;28;20477;-90
2022/02/03 07:09:32;;;;;;;12.03;10.67;;;8.30;99.90;;;;;;5026652;28;20450;-90
2022/02/03 07:12:01;;;;;;;17.73;12.60;;;8.40;99.90;;;;;;5024785;28;20962;-90
2022/02/03 07:14:31;;;;;;;15.37;12.30;;;8.40;99.90;;;;;;5029258;28;20476;-90
2022/02/03 07:16:58;;;;;;;15.97;13.90;;;8.40;99.90;;;;;;5024628;28;20476;-86
2022/02/03 07:19:25;;;;;;;18.30;13.40;;;8.50;99.90;;;;;;5038074;28;20432;-84
2022/02/03 07:21:53;;;;;;;16.87;13.13;;;8.50;99.90;;;;;;5050471;28;20434;-86
2022/02/03 07:24:20;;;;;;;17.73;15.03;;;8.50;99.90;;;;;;5024592;28;20503;-84
2022/02/03 07:26:47;;;;;;;14.83;12.87;;;8.60;99.90;;;;;;5022225;28;20957;-85
2022/02/03 07:29:14;;;;;;;19.00;13.97;;;8.60;99.90;;;;;;5026615;28;20520;-85
2022/02/03 07:31:40;;;;;;;19.10;13.20;;;8.60;99.90;;;;;;5023644;28;20458;-85
2022/02/03 07:34:11;;;;;;;15.80;13.13;;;8.60;99.90;;;;;;5021715;28;20524;-85
2022/02/03 07:36:38;;;;;;;13.47;12.10;;;8.60;99.90;;;;;;5025830;28;20543;-85
2022/02/03 07:39:07;;;;;;;14.07;11.90;;;8.70;99.90;;;;;;5029200;28;20466;-84
2022/02/03 07:41:34;;;;;;;17.33;12.30;;;8.80;99.90;;;;;;5055076;28;20449;-85
2022/02/03 07:44:02;;;;;;;14.67;12.13;;;8.80;99.90;;;;;;5036826;28;20445;-84
2022/02/03 07:46:30;;;;;;;15.60;12.10;;;8.90;99.90;;;;;;5028308;28;20445;-84
2022/02/03 07:48:57;;;;;;;13.20;11.80;;;8.90;99.90;;;;;;5028177;28;20480;-85
2022/02/03 07:51:24;;;;;;;12.33;10.20;;;8.90;99.90;;;;;;5019171;28;20461;-85
2022/02/03 07:53:51;;;;;;;17.03;12.50;;;9.00;99.90;;;;;;5032240;28;20989;-84
2022/02/03 07:56:19;;;;;;;10.30;8.53;;;9.10;99.90;;;;;;5032603;28;20449;-85
2022/02/03 07:58:45;;;;;;;15.27;10.40;;;9.10;99.90;;;;;;5031471;28;20484;-85
2022/02/03 08:01:13;;;;;;;11.53;10.40;;;9.20;99.90;;;;;;5031876;28;20453;-85
2022/02/03 08:03:42;;;;;;;12.50;9.47;;;9.20;99.90;;;;;;5032202;28;20457;-85
2022/02/03 08:06:14;;;;;;;11.97;8.97;;;9.30;99.90;;;;;;5032589;28;20453;-85
2022/02/03 08:08:45;;;;;;;13.00;9.97;;;9.20;99.90;;;;;;5032255;28;20564;-85
2022/02/03 08:11:16;;;;;;;11.17;9.73;;;9.20;99.90;;;;;;5041293;28;20472;-84
2022/02/03 08:13:51;;;;;;;9.43;8.53;;;9.20;99.90;;;;;;5032600;28;20499;-84
2022/02/03 08:16:23;;;;;;;9.93;8.67;;;9.10;99.90;;;;;;5027499;28;20495;-85
2022/02/03 08:18:55;;;;;;;10.13;8.93;;;9.20;99.90;;;;;;5032301;28;20477;-85
2022/02/03 08:21:23;;;;;;;8.27;7.47;;;9.20;99.90;;;;;;5033520;28;20480;-85
2022/02/03 08:24:14;;;;;;;10.37;8.07;;;9.30;99.90;;;;;;5032977;28;20489;-85
2022/02/03 08:32:12;;;;;;;9.83;8.40;;;9.60;99.90;;;;;;4993015;28;21059;-86
2022/02/03 08:34:47;;;;;;;22.00;10.83;;;9.70;99.90;;;;;;5031853;28;20480;-85
2022/02/03 08:37:16;;;;;;;13.10;10.33;;;9.80;99.90;;;;;;5031901;28;20477;-85
2022/02/03 08:39:52;;;;;;;10.03;9.00;;;9.90;99.90;;;;;;5032015;28;20469;-85
2022/02/03 08:42:19;;;;;;;10.73;8.43;;;10.00;99.90;;;;;;5032102;28;20563;-85
2022/02/03 08:44:47;;;;;;;10.37;9.30;;;10.10;99.90;;;;;;5031714;28;20499;-85
2022/02/03 08:47:15;;;;;;;9.30;8.40;;;10.10;99.90;;;;;;5032514;28;20900;-85
2022/02/03 08:49:46;;;;;;;11.27;10.07;;;10.10;99.90;;;;;;5035645;28;20453;-85
2022/02/03 08:52:18;;;;;;;15.93;11.20;;;10.00;99.90;;;;;;5018746;28;20446;-85
2022/02/03 08:54:58;;;;;;;11.20;8.80;;;9.90;99.90;;;;;;5038785;28;20528;-84
2022/02/03 08:57:36;;;;;;;16.67;11.40;;;9.90;99.90;;;;;;5044554;28;20484;-85
2022/02/03 09:36:27;;;;;;;6.20;5.37;;;11.30;99.90;;;;;;5005792;28;20472;-89
2022/02/03 09:42:04;;;;;;;7.70;6.80;;;11.50;99.90;;;;;;5031797;28;20553;-89
2022/02/03 09:51:07;;;;;;;7.47;6.77;;;12.20;99.90;;;;;;5056760;28;20485;-88
2022/02/03 09:53:27;;;;;;;6.50;4.60;;;12.20;99.90;;;;;;5040313;28;20444;-89
2022/02/03 09:56:15;;;;;;;8.53;5.90;;;12.00;99.90;;;;;;5054130;28;20446;-88
2022/02/03 09:58:53;;;;;;;5.30;4.77;;;12.00;99.90;;;;;;5049326;28;20488;-89
2022/02/03 10:04:48;;;;;;;4.73;4.03;;;11.90;99.90;;;;;;5057337;28;20448;-90
2022/02/03 10:07:30;;;;;;;4.20;3.80;;;11.60;99.90;;;;;;5059210;28;20444;-90
2022/02/03 10:13:20;;;;;;;2.30;2.10;;;11.80;99.90;;;;;;5149891;22;21107;-90
2022/02/03 10:16:20;;;;;;;2.97;2.70;;;11.50;99.90;;;;;;5065575;28;20873;-90
2022/02/03 10:19:02;;;;;;;2.20;2.00;;;11.40;99.90;;;;;;5059781;28;20440;-90
2022/02/03 10:21:34;;;;;;;2.00;1.80;;;11.40;99.90;;;;;;5060893;28;20522;-90
2022/02/03 10:24:06;;;;;;;2.30;2.03;;;11.50;99.90;;;;;;5078844;28;20437;-90
2022/02/03 10:26:48;;;;;;;4.97;1.80;;;11.80;99.90;;;;;;5076053;28;20432;-88
2022/02/03 10:29:44;;;;;;;3.13;1.97;;;12.90;99.90;;;;;;5075017;28;21073;-90
2022/02/03 10:38:07;;;;;;;2.40;2.20;;;14.00;99.50;;;;;;5196179;22;20480;-89
2022/02/03 10:48:04;;;;;;;2.50;2.30;;;14.50;99.40;;;;;;5052836;28;20411;-89
2022/02/03 11:10:40;;;;;;;3.10;2.80;;;13.30;99.10;;;;;;4963814;29;20419;-92
2022/02/03 11:13:51;;;;;;;1.97;1.73;;;13.60;99.10;;;;;;5057065;28;20437;-92
2022/02/03 11:16:54;;;;;;;1.53;1.43;;;13.10;99.40;;;;;;5076288;28;20538;-90
2022/02/03 11:19:39;;;;;;;1.67;1.57;;;13.00;99.30;;;;;;5086770;28;20472;-90
2022/02/03 11:22:53;;;;;;;2.23;1.77;;;12.80;99.60;;;;;;5084343;28;20489;-91
2022/02/03 11:42:17;;;;;;;2.50;2.30;;;12.30;99.90;;;;;;5085835;28;20463;-91
2022/02/03 11:51:54;;;;;;;4.40;2.30;;;12.10;99.90;;;;;;5079794;28;20454;-91
2022/02/03 11:54:53;;;;;;;5.00;1.87;;;12.10;99.90;;;;;;5083536;28;20849;-90
2022/02/03 11:58:08;;;;;;;2.43;2.23;;;12.20;99.90;;;;;;5076164;28;20453;-91
2022/02/03 12:19:24;;;;;;;2.27;2.07;;;13.10;99.90;;;;;;5066573;28;20440;-91
2022/02/03 12:22:27;;;;;;;3.27;2.77;;;13.20;99.40;;;;;;5051005;28;20483;-91
2022/02/03 12:25:06;;;;;;;2.40;2.20;;;13.20;99.00;;;;;;5080411;28;20447;-91
2022/02/03 12:38:29;;;;;;;2.00;1.83;;;13.30;99.40;;;;;;5078053;28;20425;-91
2022/02/03 13:04:04;;;;;;;2.20;2.03;;;13.70;98.50;;;;;;5093790;28;20457;-90
2022/02/03 13:06:32;;;;;;;2.77;2.13;;;13.50;98.10;;;;;;5084041;28;20443;-90
2022/02/03 13:09:08;;;;;;;3.77;2.73;;;13.30;98.60;;;;;;5083618;28;20454;-91
2022/02/03 13:11:54;;;;;;;3.53;2.60;;;13.20;98.60;;;;;;5084104;28;20504;-91
2022/02/03 13:17:24;;;;;;;4.90;2.50;;;13.00;99.00;;;;;;5063188;28;20440;-91
2022/02/03 13:23:27;;;;;;;2.23;1.93;;;12.80;99.30;;;;;;5078814;28;20599;-93
2022/02/03 13:29:37;;;;;;;3.10;2.67;;;12.70;99.80;;;;;;5084584;28;20498;-92
2022/02/03 13:32:22;;;;;;;2.43;2.23;;;12.60;99.80;;;;;;5078848;28;20467;-92
2022/02/03 13:35:03;;;;;;;4.07;2.10;;;12.40;99.90;;;;;;5083950;28;20537;-92
2022/02/03 13:37:47;;;;;;;4.50;2.47;;;12.30;99.90;;;;;;5086316;28;20448;-91
2022/02/03 13:40:26;;;;;;;4.30;2.10;;;12.20;99.90;;;;;;5081740;28;20447;-91
2022/02/03 13:43:36;;;;;;;2.70;2.00;;;12.20;99.90;;;;;;5065364;28;20471;-91
2022/02/03 13:49:02;;;;;;;3.40;1.90;;;12.30;99.90;;;;;;5076462;28;20448;-91
2022/02/03 13:51:47;;;;;;;2.77;2.40;;;12.30;99.90;;;;;;5081506;28;20596;-91
2022/02/03 14:20:03;;;;;;;3.93;2.17;;;12.70;99.90;;;;;;5022304;28;20460;-92
2022/02/03 14:28:33;;;;;;;4.60;2.53;;;12.60;99.80;;;;;;5099655;28;20477;-92
2022/02/03 14:31:05;;;;;;;4.80;3.20;;;12.60;99.90;;;;;;5098905;28;20475;-92
2022/02/03 14:33:40;;;;;;;2.83;2.17;;;12.60;99.90;;;;;;5097762;28;20427;-92
2022/02/03 14:36:14;;;;;;;2.33;2.00;;;12.70;99.90;;;;;;5086794;28;20421;-92
2022/02/03 14:38:55;;;;;;;2.83;2.10;;;12.70;99.90;;;;;;5079069;28;20458;-92
2022/02/03 14:41:38;;;;;;;2.50;2.00;;;12.70;99.90;;;;;;5098011;28;20459;-92
2022/02/03 14:44:09;;;;;;;3.00;1.80;;;12.60;99.90;;;;;;5099014;28;20445;-93
2022/02/03 14:46:36;;;;;;;5.63;2.17;;;12.50;99.90;;;;;;5099278;28;20447;-92
2022/02/03 14:49:19;;;;;;;3.20;2.30;;;12.40;99.90;;;;;;5098465;28;20440;-92
2022/02/03 14:52:11;;;;;;;3.40;2.20;;;12.40;99.90;;;;;;5091515;28;20498;-92
2022/02/03 14:58:07;;;;;;;5.77;2.03;;;12.40;99.90;;;;;;5082400;28;20441;-92
2022/02/03 15:00:34;;;;;;;2.57;2.37;;;12.30;99.90;;;;;;5083314;28;20512;-89
2022/02/03 15:03:01;;;;;;;3.50;2.60;;;12.30;99.90;;;;;;5080227;28;20522;-90
2022/02/03 15:05:31;;;;;;;3.60;2.13;;;12.30;99.90;;;;;;5085569;28;20465;-91
2022/02/03 15:08:03;;;;;;;3.47;2.57;;;12.20;99.90;;;;;;5080655;28;20471;-90
2022/02/03 15:10:52;;;;;;;6.03;2.40;;;12.10;99.90;;;;;;5079777;28;20503;-89
2022/02/03 15:13:35;;;;;;;4.67;2.03;;;12.10;99.90;;;;;;5086626;28;20708;-89
2022/02/03 15:16:04;;;;;;;3.67;2.67;;;12.00;99.90;;;;;;5086308;28;20535;-89
2022/02/03 15:18:34;;;;;;;4.33;2.37;;;11.90;99.90;;;;;;5082262;28;20452;-87
2022/02/03 15:24:27;;;;;;;6.07;2.83;;;11.80;99.90;;;;;;5085168;28;20441;-88
2022/02/03 15:26:59;;;;;;;4.40;2.90;;;11.80;99.90;;;;;;5086911;28;20449;-88
2022/02/03 15:29:29;;;;;;;15.07;3.80;;;11.70;99.90;;;;;;5073871;28;20463;-89
2022/02/03 15:31:58;;;;;;;5.53;2.53;;;11.70;99.90;;;;;;5072652;28;20540;-89
2022/02/03 15:34:25;;;;;;;2.23;2.03;;;11.60;99.90;;;;;;5081464;28;20452;-87
2022/02/03 15:36:55;;;;;;;3.90;2.20;;;11.50;99.90;;;;;;5084754;28;20436;-88
2022/02/03 15:39:31;;;;;;;6.30;2.70;;;11.50;99.90;;;;;;5082355;28;20464;-88
2022/02/03 15:42:00;;;;;;;3.53;2.73;;;11.50;99.90;;;;;;5079269;28;20470;-88
2022/02/03 15:44:35;;;;;;;6.70;2.93;;;11.40;99.90;;;;;;5081707;28;20475;-88
2022/02/03 15:47:06;;;;;;;4.23;3.03;;;11.40;99.90;;;;;;5091090;28;20541;-88
2022/02/03 15:50:10;;;;;;;6.07;2.90;;;11.30;99.90;;;;;;5088562;28;20997;-88
2022/02/03 16:03:43;;;;;;;12.30;3.50;;;11.00;99.90;;;;;;5073057;28;20525;-89
2022/02/03 16:17:13;;;;;;;12.00;4.20;;;10.90;99.90;;;;;;5067820;28;20520;-88
2022/02/03 16:19:49;;;;;;;6.37;3.13;;;10.80;99.90;;;;;;5070672;28;20504;-89
2022/02/03 16:22:28;;;;;;;13.80;4.30;;;10.70;99.90;;;;;;5072013;28;20479;-91
2022/02/03 16:25:00;;;;;;;4.53;3.80;;;10.60;99.90;;;;;;5080594;28;21041;-91
2022/02/03 16:52:41;;;;;;;8.03;5.93;;;10.40;99.90;;;;;;5080925;28;20473;-90
2022/02/03 16:55:17;;;;;;;9.70;5.37;;;10.40;99.90;;;;;;5059659;28;20521;-90
2022/02/03 17:00:40;;;;;;;7.33;3.80;;;10.40;99.90;;;;;;5072951;28;20443;-91
2022/02/03 17:06:01;;;;;;;6.00;3.97;;;10.30;99.90;;;;;;5078141;28;20539;-90
2022/02/03 17:08:36;;;;;;;7.20;5.70;;;10.20;99.90;;;;;;5081732;28;20450;-90
2022/02/03 17:11:15;;;;;;;13.00;7.67;;;10.30;99.90;;;;;;5084342;28;20471;-90
2022/02/03 17:13:48;;;;;;;10.20;7.40;;;10.30;99.90;;;;;;5085558;28;20454;-90
2022/02/03 17:16:28;;;;;;;11.93;7.10;;;10.20;99.90;;;;;;5082520;28;20445;-91
2022/02/03 17:19:02;;;;;;;4.57;4.17;;;10.30;99.90;;;;;;5075774;28;20457;-90
2022/02/03 17:21:45;;;;;;;5.37;4.63;;;10.20;99.90;;;;;;5082126;28;20475;-90
2022/02/03 17:24:22;;;;;;;4.73;3.43;;;10.20;99.90;;;;;;5064571;28;20448;-90
2022/02/03 17:26:56;;;;;;;5.60;4.50;;;10.20;99.90;;;;;;5095872;22;20507;-88
2022/02/03 17:29:33;;;;;;;3.87;3.30;;;10.20;99.90;;;;;;5102085;28;20446;-87
2022/02/03 17:32:06;;;;;;;3.40;3.10;;;10.20;99.90;;;;;;5103896;28;20457;-88
2022/02/03 17:52:17;;;;;;;5.63;5.13;;;10.10;99.90;;;;;;5097889;28;20550;-86
2022/02/03 17:55:06;;;;;;;5.23;4.10;;;9.90;99.90;;;;;;5098783;28;20514;-86
2022/02/03 18:08:58;;;;;;;5.97;5.37;;;9.70;99.90;;;;;;5063522;28;20575;-87
2022/02/03 18:11:44;;;;;;;6.33;5.40;;;9.70;99.90;;;;;;5086153;28;20447;-86
2022/02/03 18:25:45;;;;;;;7.90;6.43;;;9.60;99.90;;;;;;5087463;28;20467;-87
2022/02/03 18:25:59;;;;;;;8.60;7.70;;;9.50;99.90;;;;;;5047640;28;20456;-86
2022/02/03 18:31:18;;;;;;;8.23;6.50;;;9.40;99.90;;;;;;5074832;28;20442;-87
2022/02/03 18:36:47;;;;;;;7.20;6.60;;;9.40;99.90;;;;;;5091399;28;20433;-87
2022/02/03 18:48:55;;;;;;;14.73;8.90;;;9.30;99.90;;;;;;5086390;28;20831;-88
2022/02/03 18:50:50;;;;;;;7.47;6.77;;;9.30;99.90;;;;;;5101422;28;20447;-86
2022/02/03 18:53:22;;;;;;;8.17;7.47;;;9.20;99.90;;;;;;5091616;28;20447;-85
2022/02/03 18:56:00;;;;;;;7.80;7.13;;;9.20;99.90;;;;;;5090904;28;20440;-87
2022/02/03 18:58:41;;;;;;;10.10;9.10;;;9.10;99.90;;;;;;5096322;28;20577;-87
2022/02/03 19:01:26;;;;;;;9.63;8.73;;;9.00;99.90;;;;;;5089631;28;20461;-87
2022/02/03 19:10:05;;;;;;;9.13;8.23;;;9.10;99.90;;;;;;5019772;28;20455;-85
2022/02/03 19:15:52;;;;;;;8.20;7.50;;;9.20;99.90;;;;;;5050733;28;20442;-82
2022/02/03 19:24:30;;;;;;;11.03;9.97;;;9.10;99.90;;;;;;5079534;28;20477;-86
2022/02/03 19:27:22;;;;;;;10.90;8.63;;;9.00;99.90;;;;;;5093835;28;20471;-85
2022/02/03 20:05:47;;;;;;;12.10;10.80;;;8.40;99.90;;;;;;5042535;28;20473;-82
2022/02/03 20:08:20;;;;;;;12.43;11.23;;;8.40;99.90;;;;;;5101044;28;20470;-86
2022/02/03 20:10:50;;;;;;;11.60;10.50;;;8.40;99.90;;;;;;5098100;28;20443;-83
2022/02/03 20:13:18;;;;;;;12.60;11.30;;;8.40;99.90;;;;;;5098391;28;20466;-84
2022/02/03 20:15:47;;;;;;;12.70;10.63;;;8.40;99.90;;;;;;5106000;28;22034;-83
2022/02/03 20:18:14;;;;;;;14.23;12.57;;;8.50;99.90;;;;;;5098382;28;20475;-85
2022/02/03 20:20:42;;;;;;;14.40;12.83;;;8.50;99.90;;;;;;5100273;28;20446;-83
2022/02/03 20:23:14;;;;;;;15.20;13.70;;;8.50;99.90;;;;;;5107032;28;20439;-84
2022/02/03 20:25:46;;;;;;;12.87;11.57;;;8.40;99.90;;;;;;5102644;28;20475;-83
2022/02/03 20:28:13;;;;;;;13.03;11.73;;;8.40;99.90;;;;;;5097481;28;20499;-86
2022/02/03 20:30:40;;;;;;;13.47;12.23;;;8.50;99.90;;;;;;5102604;28;20461;-86
2022/02/03 20:33:07;;;;;;;14.73;12.70;;;8.40;99.90;;;;;;5110982;28;20443;-87
2022/02/03 20:35:35;;;;;;;38.00;27.30;;;8.40;99.90;;;;;;5104403;28;20438;-86
2022/02/03 20:38:03;;;;;;;19.40;15.40;;;8.30;99.90;;;;;;5106708;28;20481;-87
2022/02/03 20:40:30;;;;;;;11.43;10.33;;;8.40;99.90;;;;;;5106848;28;20454;-87
2022/02/03 20:42:58;;;;;;;13.20;11.80;;;8.30;99.90;;;;;;5105032;28;20443;-87
2022/02/03 20:45:25;;;;;;;11.67;10.57;;;8.30;99.90;;;;;;5103777;28;20442;-86
2022/02/03 20:47:52;;;;;;;10.90;9.80;;;8.40;99.90;;;;;;5102252;28;20454;-86
2022/02/03 20:50:20;;;;;;;11.93;10.60;;;8.40;99.90;;;;;;5101932;28;20444;-87
2022/02/03 20:52:47;;;;;;;10.80;9.53;;;8.40;99.90;;;;;;5096201;28;20462;-86
2022/02/03 20:55:14;;;;;;;10.90;9.80;;;8.40;99.90;;;;;;5100163;28;20438;-87
2022/02/03 20:57:41;;;;;;;9.63;8.73;;;8.40;99.90;;;;;;5098282;28;20462;-87
2022/02/03 21:00:19;;;;;;;9.83;8.87;;;8.40;99.90;;;;;;5100286;28;20434;-87
2022/02/03 21:02:52;;;;;;;14.10;10.60;;;8.50;99.90;;;;;;5097259;28;20451;-86
2022/02/03 21:05:19;;;;;;;12.73;11.40;;;8.50;99.90;;;;;;5100937;28;20469;-87
2022/02/03 21:07:48;;;;;;;11.90;10.73;;;8.50;99.90;;;;;;5100450;28;20466;-86
2022/02/03 21:10:18;;;;;;;11.53;10.40;;;8.60;99.90;;;;;;5104608;28;20431;-86
2022/02/03 21:12:46;;;;;;;11.63;10.40;;;8.60;99.90;;;;;;5103804;28;20439;-85
2022/02/03 21:15:21;;;;;;;10.67;9.67;;;8.60;99.90;;;;;;5103826;28;20447;-88
2022/02/03 21:17:48;;;;;;;9.70;8.70;;;8.60;99.90;;;;;;5095436;28;20461;-87
2022/02/03 21:20:18;;;;;;;11.83;9.27;;;8.60;99.90;;;;;;5096058;28;20449;-87
2022/02/03 21:22:45;;;;;;;10.77;9.67;;;8.50;99.90;;;;;;5110432;28;20457;-88
2022/02/03 21:25:20;;;;;;;10.97;9.87;;;8.40;99.90;;;;;;5109459;28;20438;-86
2022/02/03 21:27:47;;;;;;;11.50;10.33;;;8.40;99.90;;;;;;5107178;28;20648;-87
2022/02/03 21:30:19;;;;;;;15.00;10.77;;;8.30;99.90;;;;;;5105575;28;20473;-86
2022/02/03 21:32:46;;;;;;;11.70;10.50;;;8.30;99.90;;;;;;5095657;28;20522;-87
2022/02/03 21:35:14;;;;;;;10.50;9.40;;;8.20;99.90;;;;;;5106498;28;20431;-87
2022/02/03 21:37:41;;;;;;;13.07;11.63;;;8.10;99.90;;;;;;5107646;28;20459;-87
2022/02/03 21:40:11;;;;;;;13.80;10.63;;;8.00;99.90;;;;;;5110990;28;20439;-85
2022/02/03 21:42:38;;;;;;;13.23;11.33;;;8.00;99.90;;;;;;5106693;28;20427;-87
2022/02/03 21:45:06;;;;;;;12.73;11.43;;;8.00;99.90;;;;;;5107392;28;20700;-87
2022/02/03 21:47:37;;;;;;;15.53;12.93;;;7.90;99.90;;;;;;5107289;28;20545;-89
2022/02/03 21:50:05;;;;;;;14.10;12.30;;;7.90;99.90;;;;;;5099651;28;20442;-88
2022/02/03 21:52:37;;;;;;;13.13;11.63;;;7.90;99.90;;;;;;5099911;28;20977;-87
2022/02/03 21:55:05;;;;;;;12.60;11.40;;;7.90;99.90;;;;;;5098004;28;20438;-88
2022/02/03 21:57:33;;;;;;;22.53;16.80;;;7.80;99.90;;;;;;5099818;28;20446;-89
2022/02/03 22:00:00;;;;;;;15.03;12.90;;;7.80;99.90;;;;;;5097117;28;20451;-89
2022/02/03 22:02:27;;;;;;;14.43;12.93;;;7.80;99.90;;;;;;5102516;28;20450;-89
2022/02/03 22:04:56;;;;;;;13.77;12.47;;;7.80;99.90;;;;;;5103963;28;20454;-88
2022/02/03 22:07:23;;;;;;;14.77;13.27;;;7.90;99.90;;;;;;5097824;28;20535;-90
2022/02/03 22:09:50;;;;;;;15.67;14.07;;;7.90;99.90;;;;;;5101139;28;20435;-88
2022/02/03 22:12:17;;;;;;;16.23;12.63;;;7.90;99.90;;;;;;5100181;28;20439;-88
2022/02/03 22:14:43;;;;;;;14.93;13.63;;;7.90;99.90;;;;;;5089233;28;20450;-89
2022/02/03 22:17:11;;;;;;;13.13;11.83;;;7.90;99.90;;;;;;5090642;28;20470;-88
2022/02/03 22:19:46;;;;;;;22.13;17.90;;;7.90;99.90;;;;;;5098589;28;20477;-90
2022/02/03 22:22:30;;;;;;;16.13;14.07;;;7.80;99.90;;;;;;5103496;28;20457;-87
2022/02/03 22:25:13;;;;;;;15.97;14.17;;;7.80;99.90;;;;;;5101045;28;20481;-87
2022/02/03 22:27:56;;;;;;;17.47;14.77;;;7.70;99.90;;;;;;5095392;28;20479;-89
2022/02/03 22:38:44;;;;;;;16.93;13.40;;;7.70;99.90;;;;;;5099049;28;20464;-90
2022/02/03 22:44:02;;;;;;;15.53;13.40;;;7.60;99.90;;;;;;5092522;28;20518;-87
2022/02/03 22:46:53;;;;;;;14.77;13.20;;;7.60;99.90;;;;;;5097377;28;20474;-87
2022/02/03 22:49:20;;;;;;;15.87;13.80;;;7.60;99.90;;;;;;5099777;28;20443;-86